North Chichester, New Hampshire
Current Conditions -  °F | °C
As of 7:51 PM on Sunday 23 Nov 2014 (Local Time) from KCON Reporting Station
Overcast Overcast  
Wind Chill: 44°   Ceiling: 5500
Heat Index: 44°   Visibility: 10mi
Dew Point: 38°   Wind: 0mph
Humidity: 79%   Direction: NA
Pressure: 30.11"   Gusts: NA
Location:  43.2528°N, 71.4017°W
Report Text: KCON 240051Z AUTO 00000KT 10SM BKN055 OVC085 07/03 A3011 RMK AO2 SLP199 T00670033
Loading
Personal Weather Stations






























Interactive Weather Map New forecast layout! Learn more

10-Day Weather Forecast

Advertisements
Track Severe Weather on mobile